sensor_id;sensor_type;location;lat;lon;timestamp;temperature;humidity
27026;DHT22;14565;48.626;8.978;2022-07-01T00:02:11;14.70;99.90
27026;DHT22;14565;48.626;8.978;2022-07-01T00:04:36;14.40;99.90
27026;DHT22;14565;48.626;8.978;2022-07-01T00:07:02;14.40;99.90
27026;DHT22;14565;48.626;8.978;2022-07-01T00:09:28;14.30;99.90
27026;DHT22;14565;48.626;8.978;2022-07-01T00:11:54;14.30;99.90
27026;DHT22;14565;48.626;8.978;2022-07-01T00:14:19;14.40;99.90
27026;DHT22;14565;48.626;8.978;2022-07-01T00:16:48;14.60;99.90
27026;DHT22;14565;48.626;8.978;2022-07-01T00:19:14;14.60;99.90
27026;DHT22;14565;48.626;8.978;2022-07-01T00:21:40;14.50;99.90
27026;DHT22;14565;48.626;8.978;2022-07-01T00:24:05;14.70;99.90
27026;DHT22;14565;48.626;8.978;2022-07-01T00:26:32;14.60;99.90
27026;DHT22;14565;48.626;8.978;2022-07-01T00:28:57;14.30;99.90
27026;DHT22;14565;48.626;8.978;2022-07-01T00:31:23;14.10;99.90
27026;DHT22;14565;48.626;8.978;2022-07-01T00:33:49;13.90;99.90
27026;DHT22;14565;48.626;8.978;2022-07-01T00:36:14;14.00;99.90
27026;DHT22;14565;48.626;8.978;2022-07-01T00:38:40;13.90;99.90
27026;DHT22;14565;48.626;8.978;2022-07-01T00:41:06;13.80;99.90
27026;DHT22;14565;48.626;8.978;2022-07-01T00:43:36;14.00;99.90
27026;DHT22;14565;48.626;8.978;2022-07-01T00:46:04;13.90;99.90
27026;DHT22;14565;48.626;8.978;2022-07-01T00:48:31;14.00;99.90
27026;DHT22;14565;48.626;8.978;2022-07-01T00:50:58;14.00;99.90
27026;DHT22;14565;48.626;8.978;2022-07-01T00:53:24;14.00;99.90
27026;DHT22;14565;48.626;8.978;2022-07-01T00:55:50;14.30;99.90
27026;DHT22;14565;48.626;8.978;2022-07-01T00:58:16;13.90;99.90
27026;DHT22;14565;48.626;8.978;2022-07-01T01:00:42;14.20;99.90
27026;DHT22;14565;48.626;8.978;2022-07-01T01:03:08;13.90;99.90
27026;DHT22;14565;48.626;8.978;2022-07-01T01:05:37;13.90;99.90
27026;DHT22;14565;48.626;8.978;2022-07-01T01:08:04;13.80;99.90
27026;DHT22;14565;48.626;8.978;2022-07-01T01:10:31;13.70;99.90
27026;DHT22;14565;48.626;8.978;2022-07-01T01:12:57;13.80;99.90
27026;DHT22;14565;48.626;8.978;2022-07-01T01:15:23;13.70;99.90
27026;DHT22;14565;48.626;8.978;2022-07-01T01:17:49;13.70;99.90
27026;DHT22;14565;48.626;8.978;2022-07-01T01:20:16;13.70;99.90
27026;DHT22;14565;48.626;8.978;2022-07-01T01:22:44;13.60;99.90
27026;DHT22;14565;48.626;8.978;2022-07-01T01:25:10;13.70;99.90
27026;DHT22;14565;48.626;8.978;2022-07-01T01:27:36;13.70;99.90
27026;DHT22;14565;48.626;8.978;2022-07-01T01:30:04;13.80;99.90
27026;DHT22;14565;48.626;8.978;2022-07-01T01:32:31;13.70;99.90
27026;DHT22;14565;48.626;8.978;2022-07-01T01:34:56;13.60;99.90
27026;DHT22;14565;48.626;8.978;2022-07-01T01:37:22;13.70;99.90
27026;DHT22;14565;48.626;8.978;2022-07-01T01:39:48;13.60;99.90
27026;DHT22;14565;48.626;8.978;2022-07-01T01:42:13;13.70;99.90
27026;DHT22;14565;48.626;8.978;2022-07-01T01:44:39;13.70;99.90
27026;DHT22;14565;48.626;8.978;2022-07-01T01:47:05;13.80;99.90
27026;DHT22;14565;48.626;8.978;2022-07-01T01:49:30;13.60;99.90
27026;DHT22;14565;48.626;8.978;2022-07-01T01:51:56;13.80;99.90
27026;DHT22;14565;48.626;8.978;2022-07-01T01:54:25;13.80;99.90
27026;DHT22;14565;48.626;8.978;2022-07-01T01:56:51;13.70;99.90
27026;DHT22;14565;48.626;8.978;2022-07-01T01:59:16;13.70;99.90
27026;DHT22;14565;48.626;8.978;2022-07-01T02:01:42;13.60;99.90
27026;DHT22;14565;48.626;8.978;2022-07-01T02:04:08;13.60;99.90
27026;DHT22;14565;48.626;8.978;2022-07-01T02:06:33;13.70;99.90
27026;DHT22;14565;48.626;8.978;2022-07-01T02:08:59;13.60;99.90
27026;DHT22;14565;48.626;8.978;2022-07-01T02:11:25;13.80;99.90
27026;DHT22;14565;48.626;8.978;2022-07-01T02:13:50;13.80;99.90
27026;DHT22;14565;48.626;8.978;2022-07-01T02:16:16;13.60;99.90
27026;DHT22;14565;48.626;8.978;2022-07-01T02:18:42;13.60;99.90
27026;DHT22;14565;48.626;8.978;2022-07-01T02:21:07;13.60;99.90
27026;DHT22;14565;48.626;8.978;2022-07-01T02:23:33;13.60;99.90
27026;DHT22;14565;48.626;8.978;2022-07-01T02:25:58;13.70;99.90
27026;DHT22;14565;48.626;8.978;2022-07-01T02:28:24;13.80;99.90
27026;DHT22;14565;48.626;8.978;2022-07-01T02:30:50;13.60;99.90
27026;DHT22;14565;48.626;8.978;2022-07-01T02:33:15;13.50;99.90
27026;DHT22;14565;48.626;8.978;2022-07-01T02:35:41;13.70;99.90
27026;DHT22;14565;48.626;8.978;2022-07-01T02:38:07;13.50;99.90
27026;DHT22;14565;48.626;8.978;2022-07-01T02:40:34;13.50;99.90
27026;DHT22;14565;48.626;8.978;2022-07-01T02:43:03;13.50;99.90
27026;DHT22;14565;48.626;8.978;2022-07-01T02:45:29;13.60;99.90
27026;DHT22;14565;48.626;8.978;2022-07-01T02:47:54;13.60;99.90
27026;DHT22;14565;48.626;8.978;2022-07-01T02:50:20;13.70;99.90
27026;DHT22;14565;48.626;8.978;2022-07-01T02:52:46;13.70;99.90
27026;DHT22;14565;48.626;8.978;2022-07-01T02:55:13;13.50;99.90
27026;DHT22;14565;48.626;8.978;2022-07-01T02:57:39;13.60;99.90
27026;DHT22;14565;48.626;8.978;2022-07-01T03:00:08;13.60;99.90
27026;DHT22;14565;48.626;8.978;2022-07-01T03:02:34;13.70;99.90
27026;DHT22;14565;48.626;8.978;2022-07-01T03:05:00;13.60;99.90
27026;DHT22;14565;48.626;8.978;2022-07-01T03:07:26;13.60;99.90
27026;DHT22;14565;48.626;8.978;2022-07-01T03:09:53;13.50;99.90
27026;DHT22;14565;48.626;8.978;2022-07-01T03:12:18;13.60;99.90
27026;DHT22;14565;48.626;8.978;2022-07-01T03:15:01;13.60;99.90
27026;DHT22;14565;48.626;8.978;2022-07-01T03:17:29;13.60;99.90
27026;DHT22;14565;48.626;8.978;2022-07-01T03:19:56;13.60;99.90
27026;DHT22;14565;48.626;8.978;2022-07-01T03:22:23;13.70;99.90
27026;DHT22;14565;48.626;8.978;2022-07-01T03:24:49;13.80;99.90
27026;DHT22;14565;48.626;8.978;2022-07-01T03:27:16;13.80;99.90
27026;DHT22;14565;48.626;8.978;2022-07-01T03:29:43;13.70;99.90
27026;DHT22;14565;48.626;8.978;2022-07-01T03:32:09;13.70;99.90
27026;DHT22;14565;48.626;8.978;2022-07-01T03:34:39;13.70;99.90
27026;DHT22;14565;48.626;8.978;2022-07-01T03:37:06;13.70;99.90
27026;DHT22;14565;48.626;8.978;2022-07-01T03:39:32;13.80;99.90
27026;DHT22;14565;48.626;8.978;2022-07-01T03:41:57;13.80;99.90
27026;DHT22;14565;48.626;8.978;2022-07-01T03:44:23;13.70;99.90
27026;DHT22;14565;48.626;8.978;2022-07-01T03:46:49;13.90;99.90
27026;DHT22;14565;48.626;8.978;2022-07-01T03:49:15;13.80;99.90
27026;DHT22;14565;48.626;8.978;2022-07-01T03:51:40;13.90;99.90
27026;DHT22;14565;48.626;8.978;2022-07-01T03:54:06;13.90;99.90
27026;DHT22;14565;48.626;8.978;2022-07-01T03:56:50;13.90;99.90
27026;DHT22;14565;48.626;8.978;2022-07-01T03:59:16;13.80;99.90
27026;DHT22;14565;48.626;8.978;2022-07-01T04:01:42;13.80;99.90
27026;DHT22;14565;48.626;8.978;2022-07-01T04:04:07;13.90;99.90
27026;DHT22;14565;48.626;8.978;2022-07-01T04:06:33;13.90;99.90
27026;DHT22;14565;48.626;8.978;2022-07-01T04:09:00;13.90;99.90
27026;DHT22;14565;48.626;8.978;2022-07-01T04:11:25;13.90;99.90
27026;DHT22;14565;48.626;8.978;2022-07-01T04:13:51;13.90;99.90
27026;DHT22;14565;48.626;8.978;2022-07-01T04:16:18;13.90;99.90
27026;DHT22;14565;48.626;8.978;2022-07-01T04:18:44;13.90;99.90
27026;DHT22;14565;48.626;8.978;2022-07-01T04:21:10;13.90;99.90
27026;DHT22;14565;48.626;8.978;2022-07-01T04:23:54;13.80;99.90
27026;DHT22;14565;48.626;8.978;2022-07-01T04:26:23;13.70;99.90
27026;DHT22;14565;48.626;8.978;2022-07-01T04:28:52;13.80;99.90
27026;DHT22;14565;48.626;8.978;2022-07-01T04:31:18;13.60;99.90
27026;DHT22;14565;48.626;8.978;2022-07-01T04:33:45;13.70;99.90
27026;DHT22;14565;48.626;8.978;2022-07-01T04:36:11;13.70;99.90
27026;DHT22;14565;48.626;8.978;2022-07-01T04:38:37;13.60;99.90
27026;DHT22;14565;48.626;8.978;2022-07-01T04:41:02;13.60;99.90
27026;DHT22;14565;48.626;8.978;2022-07-01T04:43:47;13.60;99.90
27026;DHT22;14565;48.626;8.978;2022-07-01T04:46:12;13.70;99.90
27026;DHT22;14565;48.626;8.978;2022-07-01T04:48:38;13.60;99.90
27026;DHT22;14565;48.626;8.978;2022-07-01T04:51:05;13.40;99.90
27026;DHT22;14565;48.626;8.978;2022-07-01T04:53:31;13.60;99.90
27026;DHT22;14565;48.626;8.978;2022-07-01T04:55:57;13.50;99.90
27026;DHT22;14565;48.626;8.978;2022-07-01T04:58:23;13.50;99.90
27026;DHT22;14565;48.626;8.978;2022-07-01T05:00:49;13.70;99.90
27026;DHT22;14565;48.626;8.978;2022-07-01T05:03:15;13.60;99.90
27026;DHT22;14565;48.626;8.978;2022-07-01T05:05:42;13.50;99.90
27026;DHT22;14565;48.626;8.978;2022-07-01T05:08:07;13.60;99.90
27026;DHT22;14565;48.626;8.978;2022-07-01T05:10:33;13.60;99.90
27026;DHT22;14565;48.626;8.978;2022-07-01T05:12:59;13.60;99.90
27026;DHT22;14565;48.626;8.978;2022-07-01T05:15:24;13.60;99.90
27026;DHT22;14565;48.626;8.978;2022-07-01T05:17:50;13.60;99.90
27026;DHT22;14565;48.626;8.978;2022-07-01T05:20:34;13.70;99.90
27026;DHT22;14565;48.626;8.978;2022-07-01T05:23:18;13.70;99.90
27026;DHT22;14565;48.626;8.978;2022-07-01T05:25:44;13.50;99.90
27026;DHT22;14565;48.626;8.978;2022-07-01T05:28:10;13.60;99.90
27026;DHT22;14565;48.626;8.978;2022-07-01T05:30:35;13.70;99.90
27026;DHT22;14565;48.626;8.978;2022-07-01T05:33:01;13.80;99.90
27026;DHT22;14565;48.626;8.978;2022-07-01T05:35:26;13.80;99.90
27026;DHT22;14565;48.626;8.978;2022-07-01T05:37:52;13.70;99.90
27026;DHT22;14565;48.626;8.978;2022-07-01T05:40:18;13.50;99.90
27026;DHT22;14565;48.626;8.978;2022-07-01T05:42:43;13.40;99.90
27026;DHT22;14565;48.626;8.978;2022-07-01T05:45:09;13.20;99.90
27026;DHT22;14565;48.626;8.978;2022-07-01T05:47:35;13.20;99.90
27026;DHT22;14565;48.626;8.978;2022-07-01T05:50:01;13.30;99.90
27026;DHT22;14565;48.626;8.978;2022-07-01T05:52:26;13.40;99.90
27026;DHT22;14565;48.626;8.978;2022-07-01T05:54:52;13.50;99.90
27026;DHT22;14565;48.626;8.978;2022-07-01T05:57:18;13.60;99.90
27026;DHT22;14565;48.626;8.978;2022-07-01T05:59:43;13.30;99.90
27026;DHT22;14565;48.626;8.978;2022-07-01T06:02:09;13.20;99.90
27026;DHT22;14565;48.626;8.978;2022-07-01T06:04:35;13.20;99.90
27026;DHT22;14565;48.626;8.978;2022-07-01T06:07:00;13.30;99.90
27026;DHT22;14565;48.626;8.978;2022-07-01T06:09:26;13.30;99.90
27026;DHT22;14565;48.626;8.978;2022-07-01T06:11:51;13.30;99.90
27026;DHT22;14565;48.626;8.978;2022-07-01T06:14:17;13.30;99.90
27026;DHT22;14565;48.626;8.978;2022-07-01T06:16:43;13.40;99.90
27026;DHT22;14565;48.626;8.978;2022-07-01T06:19:09;13.40;99.90
27026;DHT22;14565;48.626;8.978;2022-07-01T06:21:34;13.50;99.90
27026;DHT22;14565;48.626;8.978;2022-07-01T06:24:00;13.70;99.90
27026;DHT22;14565;48.626;8.978;2022-07-01T06:26:26;13.70;99.90
27026;DHT22;14565;48.626;8.978;2022-07-01T06:28:52;13.60;99.90
27026;DHT22;14565;48.626;8.978;2022-07-01T06:31:18;13.70;99.90
27026;DHT22;14565;48.626;8.978;2022-07-01T06:33:43;13.60;99.90
27026;DHT22;14565;48.626;8.978;2022-07-01T06:36:09;13.70;99.90
27026;DHT22;14565;48.626;8.978;2022-07-01T06:38:37;13.50;99.90
27026;DHT22;14565;48.626;8.978;2022-07-01T06:41:03;13.50;99.90
27026;DHT22;14565;48.626;8.978;2022-07-01T06:43:47;13.50;99.90
27026;DHT22;14565;48.626;8.978;2022-07-01T06:46:13;13.60;99.90
27026;DHT22;14565;48.626;8.978;2022-07-01T06:48:38;13.50;99.90
27026;DHT22;14565;48.626;8.978;2022-07-01T06:51:04;13.20;99.90
27026;DHT22;14565;48.626;8.978;2022-07-01T06:53:30;13.40;99.90
27026;DHT22;14565;48.626;8.978;2022-07-01T06:55:57;13.50;99.90
27026;DHT22;14565;48.626;8.978;2022-07-01T06:58:22;13.60;99.90
27026;DHT22;14565;48.626;8.978;2022-07-01T07:00:48;13.50;99.90
27026;DHT22;14565;48.626;8.978;2022-07-01T07:03:14;13.60;99.90
27026;DHT22;14565;48.626;8.978;2022-07-01T07:05:40;13.60;99.90
27026;DHT22;14565;48.626;8.978;2022-07-01T07:08:05;13.60;99.90
27026;DHT22;14565;48.626;8.978;2022-07-01T07:10:31;13.50;99.90
27026;DHT22;14565;48.626;8.978;2022-07-01T07:12:56;13.40;99.90
27026;DHT22;14565;48.626;8.978;2022-07-01T07:15:22;13.60;99.90
27026;DHT22;14565;48.626;8.978;2022-07-01T07:17:48;13.60;99.90
27026;DHT22;14565;48.626;8.978;2022-07-01T07:20:13;13.50;99.90
27026;DHT22;14565;48.626;8.978;2022-07-01T07:22:39;13.30;99.90
27026;DHT22;14565;48.626;8.978;2022-07-01T07:25:05;13.20;99.90
27026;DHT22;14565;48.626;8.978;2022-07-01T07:27:31;13.10;99.90
27026;DHT22;14565;48.626;8.978;2022-07-01T07:29:57;13.00;99.90
27026;DHT22;14565;48.626;8.978;2022-07-01T07:32:22;13.30;99.90
27026;DHT22;14565;48.626;8.978;2022-07-01T07:34:48;13.40;99.90
27026;DHT22;14565;48.626;8.978;2022-07-01T07:37:14;13.50;99.90
27026;DHT22;14565;48.626;8.978;2022-07-01T07:39:39;13.50;99.90
27026;DHT22;14565;48.626;8.978;2022-07-01T07:42:05;13.30;99.90
27026;DHT22;14565;48.626;8.978;2022-07-01T07:44:31;13.60;99.90
27026;DHT22;14565;48.626;8.978;2022-07-01T07:46:57;13.30;99.90
27026;DHT22;14565;48.626;8.978;2022-07-01T07:49:24;13.00;99.90
27026;DHT22;14565;48.626;8.978;2022-07-01T07:51:51;13.00;99.90
27026;DHT22;14565;48.626;8.978;2022-07-01T07:54:17;13.10;99.90
27026;DHT22;14565;48.626;8.978;2022-07-01T07:56:42;13.30;99.90
27026;DHT22;14565;48.626;8.978;2022-07-01T07:59:08;13.50;99.90
27026;DHT22;14565;48.626;8.978;2022-07-01T08:01:34;13.60;99.90
27026;DHT22;14565;48.626;8.978;2022-07-01T08:04:00;13.50;99.90
27026;DHT22;14565;48.626;8.978;2022-07-01T08:06:27;13.50;99.90
27026;DHT22;14565;48.626;8.978;2022-07-01T08:08:54;13.40;99.90
27026;DHT22;14565;48.626;8.978;2022-07-01T08:11:20;13.30;99.90
27026;DHT22;14565;48.626;8.978;2022-07-01T08:13:46;13.30;99.90
27026;DHT22;14565;48.626;8.978;2022-07-01T08:16:14;13.50;99.90
27026;DHT22;14565;48.626;8.978;2022-07-01T08:18:40;13.50;99.90
27026;DHT22;14565;48.626;8.978;2022-07-01T08:21:06;13.90;99.90
27026;DHT22;14565;48.626;8.978;2022-07-01T08:23:38;13.40;99.90
27026;DHT22;14565;48.626;8.978;2022-07-01T08:26:03;13.40;99.90
27026;DHT22;14565;48.626;8.978;2022-07-01T08:28:29;13.60;99.90
27026;DHT22;14565;48.626;8.978;2022-07-01T08:30:55;13.90;99.90
27026;DHT22;14565;48.626;8.978;2022-07-01T08:33:21;13.90;99.90
27026;DHT22;14565;48.626;8.978;2022-07-01T08:35:46;13.80;99.90
27026;DHT22;14565;48.626;8.978;2022-07-01T08:38:12;13.70;99.90
27026;DHT22;14565;48.626;8.978;2022-07-01T08:40:41;13.80;99.90
27026;DHT22;14565;48.626;8.978;2022-07-01T08:43:07;14.00;99.90
27026;DHT22;14565;48.626;8.978;2022-07-01T08:45:35;14.00;99.90
27026;DHT22;14565;48.626;8.978;2022-07-01T08:48:03;14.10;99.90
27026;DHT22;14565;48.626;8.978;2022-07-01T08:50:37;14.00;99.90
27026;DHT22;14565;48.626;8.978;2022-07-01T08:53:04;13.70;99.90
27026;DHT22;14565;48.626;8.978;2022-07-01T08:55:30;13.70;99.90
27026;DHT22;14565;48.626;8.978;2022-07-01T08:57:56;13.70;99.90
27026;DHT22;14565;48.626;8.978;2022-07-01T09:00:28;13.80;99.90
27026;DHT22;14565;48.626;8.978;2022-07-01T09:02:56;13.70;99.90
27026;DHT22;14565;48.626;8.978;2022-07-01T09:05:27;13.50;99.90
27026;DHT22;14565;48.626;8.978;2022-07-01T09:08:24;13.40;99.90
27026;DHT22;14565;48.626;8.978;2022-07-01T09:10:54;13.30;99.90
27026;DHT22;14565;48.626;8.978;2022-07-01T09:13:20;13.40;99.90
27026;DHT22;14565;48.626;8.978;2022-07-01T09:15:46;13.50;99.90
27026;DHT22;14565;48.626;8.978;2022-07-01T09:18:12;13.50;99.90
27026;DHT22;14565;48.626;8.978;2022-07-01T09:20:40;13.50;99.90
27026;DHT22;14565;48.626;8.978;2022-07-01T09:23:20;13.70;99.90
27026;DHT22;14565;48.626;8.978;2022-07-01T09:25:50;13.60;99.90
27026;DHT22;14565;48.626;8.978;2022-07-01T09:28:24;13.40;99.90
27026;DHT22;14565;48.626;8.978;2022-07-01T09:30:56;13.70;99.90
27026;DHT22;14565;48.626;8.978;2022-07-01T09:33:28;13.90;99.90
27026;DHT22;14565;48.626;8.978;2022-07-01T09:35:55;14.00;99.90
27026;DHT22;14565;48.626;8.978;2022-07-01T09:38:24;14.00;99.90
27026;DHT22;14565;48.626;8.978;2022-07-01T09:40:57;14.00;99.90
27026;DHT22;14565;48.626;8.978;2022-07-01T09:43:31;13.90;99.90
27026;DHT22;14565;48.626;8.978;2022-07-01T09:48:26;14.00;99.90
27026;DHT22;14565;48.626;8.978;2022-07-01T09:50:52;14.20;99.90
27026;DHT22;14565;48.626;8.978;2022-07-01T09:53:18;14.40;99.90
27026;DHT22;14565;48.626;8.978;2022-07-01T09:55:44;14.10;99.90
27026;DHT22;14565;48.626;8.978;2022-07-01T09:58:10;14.20;99.90
27026;DHT22;14565;48.626;8.978;2022-07-01T10:00:37;14.20;99.90
27026;DHT22;14565;48.626;8.978;2022-07-01T10:03:04;14.30;99.90
27026;DHT22;14565;48.626;8.978;2022-07-01T10:05:36;14.60;99.90
27026;DHT22;14565;48.626;8.978;2022-07-01T10:13:45;14.80;99.90
27026;DHT22;14565;48.626;8.978;2022-07-01T10:16:12;14.70;99.90
27026;DHT22;14565;48.626;8.978;2022-07-01T10:18:38;15.00;99.90
27026;DHT22;14565;48.626;8.978;2022-07-01T10:21:03;14.70;99.90
27026;DHT22;14565;48.626;8.978;2022-07-01T10:23:42;14.80;99.90
27026;DHT22;14565;48.626;8.978;2022-07-01T10:26:08;15.10;99.90
27026;DHT22;14565;48.626;8.978;2022-07-01T10:31:11;15.20;99.90
27026;DHT22;14565;48.626;8.978;2022-07-01T10:33:56;15.20;99.90
27026;DHT22;14565;48.626;8.978;2022-07-01T10:43:59;15.60;99.90
27026;DHT22;14565;48.626;8.978;2022-07-01T10:46:50;16.30;99.90
27026;DHT22;14565;48.626;8.978;2022-07-01T10:52:08;17.20;99.90
27026;DHT22;14565;48.626;8.978;2022-07-01T11:02:35;15.80;99.90
27026;DHT22;14565;48.626;8.978;2022-07-01T11:05:15;16.20;99.90
27026;DHT22;14565;48.626;8.978;2022-07-01T11:07:44;15.40;99.90
27026;DHT22;14565;48.626;8.978;2022-07-01T11:10:12;15.30;99.90
27026;DHT22;14565;48.626;8.978;2022-07-01T11:12:38;15.50;99.90
27026;DHT22;14565;48.626;8.978;2022-07-01T11:15:06;16.10;99.90
27026;DHT22;14565;48.626;8.978;2022-07-01T11:17:32;16.60;99.90
27026;DHT22;14565;48.626;8.978;2022-07-01T11:19:59;16.90;99.90
27026;DHT22;14565;48.626;8.978;2022-07-01T11:22:29;17.00;99.90
27026;DHT22;14565;48.626;8.978;2022-07-01T11:25:00;17.10;99.90
27026;DHT22;14565;48.626;8.978;2022-07-01T11:27:27;17.20;99.90
27026;DHT22;14565;48.626;8.978;2022-07-01T11:29:55;16.90;99.90
27026;DHT22;14565;48.626;8.978;2022-07-01T11:32:28;16.80;99.90
27026;DHT22;14565;48.626;8.978;2022-07-01T11:34:55;17.00;99.90
27026;DHT22;14565;48.626;8.978;2022-07-01T11:37:21;17.30;99.90
27026;DHT22;14565;48.626;8.978;2022-07-01T11:40:07;17.60;99.90
27026;DHT22;14565;48.626;8.978;2022-07-01T11:42:33;17.70;99.90
27026;DHT22;14565;48.626;8.978;2022-07-01T11:44:59;17.60;99.90
27026;DHT22;14565;48.626;8.978;2022-07-01T11:47:26;17.50;99.90
27026;DHT22;14565;48.626;8.978;2022-07-01T11:49:52;17.10;99.90
27026;DHT22;14565;48.626;8.978;2022-07-01T11:52:19;17.50;99.90
27026;DHT22;14565;48.626;8.978;2022-07-01T11:54:47;17.70;99.90
27026;DHT22;14565;48.626;8.978;2022-07-01T11:57:24;17.70;99.90
27026;DHT22;14565;48.626;8.978;2022-07-01T11:59:54;17.90;99.90
27026;DHT22;14565;48.626;8.978;2022-07-01T12:02:20;18.90;99.90
27026;DHT22;14565;48.626;8.978;2022-07-01T12:04:50;19.30;99.90
27026;DHT22;14565;48.626;8.978;2022-07-01T12:07:19;18.80;99.90
27026;DHT22;14565;48.626;8.978;2022-07-01T12:09:47;18.80;99.90
27026;DHT22;14565;48.626;8.978;2022-07-01T12:12:21;18.80;99.90
27026;DHT22;14565;48.626;8.978;2022-07-01T12:14:55;18.50;99.90
27026;DHT22;14565;48.626;8.978;2022-07-01T12:17:22;17.90;99.90
27026;DHT22;14565;48.626;8.978;2022-07-01T12:19:49;17.90;99.90
27026;DHT22;14565;48.626;8.978;2022-07-01T12:22:17;17.70;99.90
27026;DHT22;14565;48.626;8.978;2022-07-01T12:24:45;17.70;99.90
27026;DHT22;14565;48.626;8.978;2022-07-01T12:27:10;18.00;99.90
27026;DHT22;14565;48.626;8.978;2022-07-01T12:32:13;17.70;99.90
27026;DHT22;14565;48.626;8.978;2022-07-01T12:37:14;18.40;99.90
27026;DHT22;14565;48.626;8.978;2022-07-01T12:39:58;18.50;99.90
27026;DHT22;14565;48.626;8.978;2022-07-01T12:42:28;19.00;99.90
27026;DHT22;14565;48.626;8.978;2022-07-01T12:44:59;19.60;99.90
27026;DHT22;14565;48.626;8.978;2022-07-01T12:47:35;19.60;99.90
27026;DHT22;14565;48.626;8.978;2022-07-01T12:52:39;19.40;99.90
27026;DHT22;14565;48.626;8.978;2022-07-01T12:55:37;19.60;99.90
27026;DHT22;14565;48.626;8.978;2022-07-01T12:58:08;19.90;99.90
27026;DHT22;14565;48.626;8.978;2022-07-01T13:00:35;19.80;99.90
27026;DHT22;14565;48.626;8.978;2022-07-01T13:03:02;19.80;99.90
27026;DHT22;14565;48.626;8.978;2022-07-01T13:05:30;20.00;99.90
27026;DHT22;14565;48.626;8.978;2022-07-01T13:07:56;20.20;99.90
27026;DHT22;14565;48.626;8.978;2022-07-01T13:10:22;20.20;99.90
27026;DHT22;14565;48.626;8.978;2022-07-01T13:12:49;19.80;99.90
27026;DHT22;14565;48.626;8.978;2022-07-01T13:15:15;20.20;99.90
27026;DHT22;14565;48.626;8.978;2022-07-01T13:17:42;20.20;99.90
27026;DHT22;14565;48.626;8.978;2022-07-01T13:20:08;20.50;99.90
27026;DHT22;14565;48.626;8.978;2022-07-01T13:22:35;20.10;99.90
27026;DHT22;14565;48.626;8.978;2022-07-01T13:25:01;20.10;99.90
27026;DHT22;14565;48.626;8.978;2022-07-01T13:27:26;19.80;99.90
27026;DHT22;14565;48.626;8.978;2022-07-01T13:29:55;19.60;99.90
27026;DHT22;14565;48.626;8.978;2022-07-01T13:32:22;19.70;99.90
27026;DHT22;14565;48.626;8.978;2022-07-01T13:34:48;20.00;99.90
27026;DHT22;14565;48.626;8.978;2022-07-01T13:37:14;20.00;99.90
27026;DHT22;14565;48.626;8.978;2022-07-01T13:39:40;20.10;99.90
27026;DHT22;14565;48.626;8.978;2022-07-01T13:42:05;20.40;99.90
27026;DHT22;14565;48.626;8.978;2022-07-01T13:44:31;19.80;99.90
27026;DHT22;14565;48.626;8.978;2022-07-01T13:46:57;19.70;99.90
27026;DHT22;14565;48.626;8.978;2022-07-01T13:49:24;19.60;99.90
27026;DHT22;14565;48.626;8.978;2022-07-01T13:51:49;19.40;99.90
27026;DHT22;14565;48.626;8.978;2022-07-01T13:54:15;19.20;99.90
27026;DHT22;14565;48.626;8.978;2022-07-01T13:56:41;19.50;99.90
27026;DHT22;14565;48.626;8.978;2022-07-01T13:59:07;19.50;99.90
27026;DHT22;14565;48.626;8.978;2022-07-01T14:01:34;19.40;99.90
27026;DHT22;14565;48.626;8.978;2022-07-01T14:04:00;19.80;99.90
27026;DHT22;14565;48.626;8.978;2022-07-01T14:06:26;19.20;99.90
27026;DHT22;14565;48.626;8.978;2022-07-01T14:08:52;18.90;99.90
27026;DHT22;14565;48.626;8.978;2022-07-01T14:11:18;18.70;99.90
27026;DHT22;14565;48.626;8.978;2022-07-01T14:13:43;19.00;99.90
27026;DHT22;14565;48.626;8.978;2022-07-01T14:16:09;19.20;99.90
27026;DHT22;14565;48.626;8.978;2022-07-01T14:18:36;19.20;99.90
27026;DHT22;14565;48.626;8.978;2022-07-01T14:21:03;19.10;99.90
27026;DHT22;14565;48.626;8.978;2022-07-01T14:23:30;19.30;99.90
27026;DHT22;14565;48.626;8.978;2022-07-01T14:25:56;19.10;99.90
27026;DHT22;14565;48.626;8.978;2022-07-01T14:28:21;18.80;99.90
27026;DHT22;14565;48.626;8.978;2022-07-01T14:30:47;18.90;99.90
27026;DHT22;14565;48.626;8.978;2022-07-01T14:33:15;19.30;99.90
27026;DHT22;14565;48.626;8.978;2022-07-01T14:35:41;19.10;99.90
27026;DHT22;14565;48.626;8.978;2022-07-01T14:38:07;18.80;99.90
27026;DHT22;14565;48.626;8.978;2022-07-01T14:40:33;18.60;99.90
27026;DHT22;14565;48.626;8.978;2022-07-01T14:43:00;18.60;99.90
27026;DHT22;14565;48.626;8.978;2022-07-01T14:45:26;18.60;99.90
27026;DHT22;14565;48.626;8.978;2022-07-01T14:47:52;18.60;99.90
27026;DHT22;14565;48.626;8.978;2022-07-01T14:50:18;18.50;99.90
27026;DHT22;14565;48.626;8.978;2022-07-01T14:52:44;18.50;99.90
27026;DHT22;14565;48.626;8.978;2022-07-01T14:55:10;18.40;99.90
27026;DHT22;14565;48.626;8.978;2022-07-01T14:57:36;18.00;99.90
27026;DHT22;14565;48.626;8.978;2022-07-01T15:00:03;18.20;99.90
27026;DHT22;14565;48.626;8.978;2022-07-01T15:02:30;18.80;99.90
27026;DHT22;14565;48.626;8.978;2022-07-01T15:04:55;18.50;99.90
27026;DHT22;14565;48.626;8.978;2022-07-01T15:07:22;18.70;99.90
27026;DHT22;14565;48.626;8.978;2022-07-01T15:09:50;18.70;99.90
27026;DHT22;14565;48.626;8.978;2022-07-01T15:12:15;19.00;99.90
27026;DHT22;14565;48.626;8.978;2022-07-01T15:14:41;18.60;99.90
27026;DHT22;14565;48.626;8.978;2022-07-01T15:17:08;18.80;99.90
27026;DHT22;14565;48.626;8.978;2022-07-01T15:19:33;18.80;99.90
27026;DHT22;14565;48.626;8.978;2022-07-01T15:21:59;19.00;99.90
27026;DHT22;14565;48.626;8.978;2022-07-01T15:24:28;19.30;99.90
27026;DHT22;14565;48.626;8.978;2022-07-01T15:26:53;19.50;99.90
27026;DHT22;14565;48.626;8.978;2022-07-01T15:29:19;19.60;99.90
27026;DHT22;14565;48.626;8.978;2022-07-01T15:31:45;19.60;99.90
27026;DHT22;14565;48.626;8.978;2022-07-01T15:34:11;19.40;99.90
27026;DHT22;14565;48.626;8.978;2022-07-01T15:36:37;19.30;99.90
27026;DHT22;14565;48.626;8.978;2022-07-01T15:39:03;19.20;99.90
27026;DHT22;14565;48.626;8.978;2022-07-01T15:41:32;19.40;99.90
27026;DHT22;14565;48.626;8.978;2022-07-01T15:43:58;19.40;99.90
27026;DHT22;14565;48.626;8.978;2022-07-01T15:46:24;19.30;99.90
27026;DHT22;14565;48.626;8.978;2022-07-01T15:48:50;19.30;99.90
27026;DHT22;14565;48.626;8.978;2022-07-01T15:51:16;19.50;99.90
27026;DHT22;14565;48.626;8.978;2022-07-01T15:53:42;19.20;99.90
27026;DHT22;14565;48.626;8.978;2022-07-01T15:56:07;19.10;99.90
27026;DHT22;14565;48.626;8.978;2022-07-01T15:58:33;19.00;99.90
27026;DHT22;14565;48.626;8.978;2022-07-01T16:00:59;19.20;99.90
27026;DHT22;14565;48.626;8.978;2022-07-01T16:03:26;19.00;99.90
27026;DHT22;14565;48.626;8.978;2022-07-01T16:05:53;19.10;99.90
27026;DHT22;14565;48.626;8.978;2022-07-01T16:08:33;19.20;99.90